createdAt,value
2023-04-13T00:01:12.768Z,32.25
2023-04-13T00:03:40.122Z,31.80
2023-04-13T00:06:11.267Z,30.70
2023-04-13T00:08:38.847Z,27.15
2023-04-13T00:11:08.283Z,33.75
2023-04-13T00:13:40.962Z,31.85
2023-04-13T00:16:10.499Z,30.13
2023-04-13T00:18:37.548Z,29.75
2023-04-13T00:21:05.985Z,32.58
2023-04-13T00:23:33.151Z,37.78
2023-04-13T00:26:01.971Z,28.20
2023-04-13T00:28:30.146Z,35.42
2023-04-13T00:30:58.050Z,31.92
2023-04-13T00:33:25.029Z,30.55
2023-04-13T00:35:52.476Z,26.88
2023-04-13T00:38:19.454Z,35.38
2023-04-13T00:40:46.773Z,26.27
2023-04-13T00:43:13.809Z,31.45
2023-04-13T00:45:41.442Z,27.40
2023-04-13T00:48:10.968Z,33.70
2023-04-13T00:50:39.848Z,32.97
2023-04-13T00:53:10.672Z,28.70
2023-04-13T00:55:39.478Z,36.05
2023-04-13T00:58:06.641Z,38.97
2023-04-13T01:00:34.013Z,29.38
2023-04-13T01:03:01.909Z,26.75
2023-04-13T01:05:51.944Z,34.25
2023-04-13T01:08:45.602Z,24.52
2023-04-13T01:11:33.021Z,33.05
2023-04-13T01:14:14.805Z,29.73
2023-04-13T01:16:54.231Z,27.85
2023-04-13T01:19:35.053Z,29.00
2023-04-13T01:22:04.944Z,31.33
2023-04-13T01:25:11.453Z,27.25
2023-04-13T01:27:47.161Z,25.05
2023-04-13T01:30:16.883Z,26.15
2023-04-13T01:32:45.810Z,30.30
2023-04-13T01:35:13.522Z,25.10
2023-04-13T01:37:44.870Z,30.67
2023-04-13T01:40:14.980Z,29.38
2023-04-13T01:42:43.476Z,25.40
2023-04-13T01:45:18.061Z,27.10
2023-04-13T01:48:09.416Z,29.50
2023-04-13T01:50:40.633Z,25.80
2023-04-13T01:53:15.392Z,28.95
2023-04-13T01:55:44.495Z,29.48
2023-04-13T01:58:14.209Z,28.80
2023-04-13T02:00:42.232Z,27.60
2023-04-13T02:03:10.582Z,34.00
2023-04-13T02:05:38.032Z,25.63
2023-04-13T02:08:06.508Z,26.77
2023-04-13T02:10:35.196Z,29.92
2023-04-13T02:13:04.160Z,30.15
2023-04-13T02:15:35.102Z,25.90
2023-04-13T02:18:02.789Z,34.75
2023-04-13T02:20:30.752Z,27.92
2023-04-13T02:22:57.997Z,30.92
2023-04-13T02:25:26.021Z,27.00
2023-04-13T02:27:53.909Z,30.05
2023-04-13T02:30:21.089Z,26.67
2023-04-13T02:32:50.206Z,28.83
2023-04-13T02:35:17.488Z,28.42
2023-04-13T02:37:45.730Z,26.73
2023-04-13T02:40:13.117Z,28.05
2023-04-13T02:42:40.643Z,28.35
2023-04-13T02:45:12.104Z,27.52
2023-04-13T02:47:40.355Z,30.15
2023-04-13T02:50:08.106Z,30.75
2023-04-13T02:52:35.439Z,30.27
2023-04-13T02:55:02.490Z,31.45
2023-04-13T02:57:29.774Z,26.98
2023-04-13T02:59:56.726Z,24.40
2023-04-13T03:02:26.655Z,33.08
2023-04-13T03:04:54.981Z,27.60
2023-04-13T03:07:22.647Z,30.80
2023-04-13T03:09:49.640Z,31.35
2023-04-13T03:12:17.205Z,24.73
2023-04-13T03:14:44.340Z,29.75
2023-04-13T03:17:12.634Z,29.30
2023-04-13T03:19:39.867Z,26.13
2023-04-13T03:22:08.269Z,27.70
2023-04-13T03:24:35.949Z,34.40
2023-04-13T03:27:03.847Z,24.67
2023-04-13T03:29:30.975Z,29.83
2023-04-13T03:31:59.114Z,30.08
2023-04-13T03:34:26.228Z,27.38
2023-04-13T03:36:53.561Z,32.90
2023-04-13T03:39:20.658Z,28.08
2023-04-13T03:41:48.268Z,30.08
2023-04-13T03:44:15.320Z,29.13
2023-04-13T03:46:42.905Z,29.73
2023-04-13T03:49:11.135Z,28.08
2023-04-13T03:51:38.473Z,32.85
2023-04-13T03:54:05.524Z,26.75
2023-04-13T03:56:33.247Z,29.25
2023-04-13T03:59:00.545Z,28.35
2023-04-13T04:01:28.094Z,26.38
2023-04-13T04:03:57.718Z,26.83
2023-04-13T04:06:27.195Z,21.42
2023-04-13T04:08:54.263Z,28.60
2023-04-13T04:11:22.353Z,25.17
2023-04-13T04:13:49.300Z,21.27
2023-04-13T04:16:17.309Z,27.60
2023-04-13T04:18:44.590Z,29.88
2023-04-13T04:21:13.328Z,25.42
2023-04-13T04:23:40.475Z,29.23
2023-04-13T04:26:08.080Z,28.25
2023-04-13T04:28:40.938Z,22.30
2023-04-13T04:31:11.957Z,26.30
2023-04-13T04:33:39.046Z,27.48
2023-04-13T04:36:10.477Z,23.45
2023-04-13T04:38:37.993Z,21.38
2023-04-13T04:41:05.670Z,25.67
2023-04-13T04:43:32.675Z,30.63
2023-04-13T04:46:03.179Z,30.63
2023-04-13T04:48:31.707Z,29.48
2023-04-13T04:51:02.100Z,31.70
2023-04-13T04:53:29.247Z,32.35
2023-04-13T04:55:56.817Z,32.78
2023-04-13T04:58:23.897Z,31.90
2023-04-13T05:00:53.224Z,33.45
2023-04-13T05:03:21.134Z,29.73
2023-04-13T05:05:48.742Z,33.95
2023-04-13T05:08:15.841Z,29.05
2023-04-13T05:10:46.873Z,30.40
2023-04-13T05:13:14.037Z,31.83
2023-04-13T05:15:41.456Z,31.27
2023-04-13T05:18:08.781Z,34.47
2023-04-13T05:20:36.404Z,37.38
2023-04-13T05:23:03.492Z,34.60
2023-04-13T05:25:31.152Z,31.67
2023-04-13T05:27:58.440Z,37.83
2023-04-13T05:30:26.035Z,33.00
2023-04-13T05:32:53.132Z,33.63
2023-04-13T05:35:21.066Z,32.42
2023-04-13T05:37:48.176Z,36.28
2023-04-13T05:40:15.520Z,34.60
2023-04-13T05:42:43.618Z,42.00
2023-04-13T05:45:12.794Z,62.40
2023-04-13T05:47:40.539Z,38.50
2023-04-13T05:50:09.505Z,27.75
2023-04-13T05:52:36.500Z,26.70
2023-04-13T05:55:04.231Z,22.52
2023-04-13T05:57:31.256Z,30.23
2023-04-13T05:59:59.988Z,39.20
2023-04-13T06:02:27.161Z,23.77
2023-04-13T06:04:55.189Z,21.08
2023-04-13T06:07:23.354Z,28.95
2023-04-13T06:09:51.862Z,45.25
2023-04-13T06:12:19.482Z,25.00
2023-04-13T06:14:47.716Z,24.42
2023-04-13T06:17:14.778Z,20.88
2023-04-13T06:19:42.090Z,25.17
2023-04-13T06:22:09.109Z,24.17
2023-04-13T06:24:37.463Z,23.92
2023-04-13T06:27:04.547Z,26.13
2023-04-13T06:29:31.996Z,22.08
2023-04-13T06:31:59.017Z,20.02
2023-04-13T06:34:27.119Z,25.02
2023-04-13T06:36:54.351Z,23.52
2023-04-13T06:39:21.894Z,24.30
2023-04-13T06:41:49.107Z,37.70
2023-04-13T06:44:16.601Z,65.22
2023-04-13T06:46:43.704Z,31.85
2023-04-13T06:49:12.009Z,25.60
2023-04-13T06:51:39.109Z,50.83
2023-04-13T06:54:06.989Z,49.65
2023-04-13T06:56:34.104Z,22.88
2023-04-13T06:59:03.006Z,37.03
2023-04-13T07:01:30.541Z,28.48
2023-04-13T07:03:59.089Z,42.92
2023-04-13T07:06:26.616Z,31.33
2023-04-13T07:08:54.048Z,33.25
2023-04-13T07:11:21.322Z,33.50
2023-04-13T07:13:48.630Z,35.50
2023-04-13T07:16:15.902Z,25.35
2023-04-13T07:18:43.443Z,21.88
2023-04-13T07:21:10.544Z,20.08
2023-04-13T07:23:37.974Z,18.90
2023-04-13T07:26:05.578Z,16.42
2023-04-13T07:28:32.805Z,16.30
2023-04-13T07:30:59.896Z,15.82
2023-04-13T07:33:27.288Z,17.70
2023-04-13T07:35:55.586Z,12.60
2023-04-13T07:38:22.989Z,19.55
2023-04-13T07:40:49.975Z,13.63
2023-04-13T07:43:19.296Z,16.13
2023-04-13T07:45:47.471Z,12.00
2023-04-13T07:48:15.137Z,10.07
2023-04-13T07:50:43.139Z,12.43
2023-04-13T07:53:10.549Z,15.52
2023-04-13T07:55:37.954Z,15.57
2023-04-13T07:58:05.324Z,9.90
2023-04-13T08:00:32.371Z,11.18
2023-04-13T08:02:59.870Z,11.40
2023-04-13T08:05:27.019Z,14.18
2023-04-13T08:07:54.612Z,22.55
2023-04-13T08:10:22.169Z,9.73
2023-04-13T08:12:49.511Z,12.35
2023-04-13T08:15:16.666Z,11.65
2023-04-13T08:17:45.087Z,13.00
2023-04-13T08:20:19.121Z,7.93
2023-04-13T08:22:46.833Z,10.57
2023-04-13T08:25:13.929Z,8.40
2023-04-13T08:27:42.077Z,8.60
2023-04-13T08:30:11.673Z,9.55
2023-04-13T08:32:41.650Z,11.48
2023-04-13T08:35:14.501Z,9.25
2023-04-13T08:37:42.633Z,7.00
2023-04-13T08:40:12.221Z,10.48
2023-04-13T08:42:39.963Z,9.48
2023-04-13T08:45:08.606Z,10.02
2023-04-13T08:47:36.972Z,9.85
2023-04-13T08:50:04.309Z,9.60
2023-04-13T08:52:31.642Z,15.70
2023-04-13T08:55:00.912Z,9.43
2023-04-13T08:57:30.945Z,10.27
2023-04-13T08:59:59.482Z,9.88
2023-04-13T09:02:34.473Z,7.68
2023-04-13T09:05:09.715Z,12.50
2023-04-13T09:07:38.840Z,9.85
2023-04-13T09:10:06.584Z,8.32
2023-04-13T09:12:35.182Z,11.75
2023-04-13T09:15:05.495Z,7.22
2023-04-13T09:17:33.997Z,11.43
2023-04-13T09:20:24.358Z,7.20
2023-04-13T09:22:52.566Z,9.40
2023-04-13T09:25:21.547Z,9.20
2023-04-13T09:27:49.702Z,6.72
2023-04-13T09:30:20.453Z,9.23
2023-04-13T09:32:48.110Z,9.32
2023-04-13T09:35:15.562Z,8.30
2023-04-13T09:37:45.085Z,6.00
2023-04-13T09:40:14.703Z,6.47
2023-04-13T09:42:54.521Z,7.22
2023-04-13T09:45:22.286Z,8.25
2023-04-13T09:47:50.538Z,7.07
2023-04-13T09:50:28.475Z,9.85
2023-04-13T09:53:07.013Z,7.05
2023-04-13T09:55:37.646Z,6.43
2023-04-13T09:58:16.966Z,5.75
2023-04-13T10:00:46.780Z,6.50
2023-04-13T10:03:16.311Z,10.57
2023-04-13T10:08:27.356Z,6.38
2023-04-13T10:11:04.273Z,5.05
2023-04-13T10:13:41.574Z,9.65
2023-04-13T10:16:09.912Z,7.68
2023-04-13T10:19:02.046Z,8.10
2023-04-13T10:21:35.483Z,5.72
2023-04-13T10:24:11.292Z,8.35
2023-04-13T10:26:39.907Z,8.18
2023-04-13T10:29:09.436Z,8.63
2023-04-13T10:31:47.347Z,7.63
2023-04-13T10:34:25.927Z,6.82
2023-04-13T10:36:56.240Z,6.50
2023-04-13T10:39:25.875Z,9.70
2023-04-13T10:42:04.079Z,7.47
2023-04-13T10:44:48.351Z,8.30
2023-04-13T10:47:21.233Z,6.22
2023-04-13T10:50:35.122Z,7.45
2023-04-13T10:53:07.637Z,10.50
2023-04-13T10:55:35.866Z,7.97
2023-04-13T10:58:15.072Z,7.80
2023-04-13T11:00:46.747Z,8.77
2023-04-13T11:03:16.668Z,6.88
2023-04-13T11:05:46.160Z,7.78
2023-04-13T11:08:22.842Z,7.97
2023-04-13T11:10:54.647Z,6.68
2023-04-13T11:13:25.127Z,8.68
2023-04-13T11:16:01.515Z,7.97
2023-04-13T11:18:28.611Z,8.05
2023-04-13T11:20:56.644Z,7.97
2023-04-13T11:23:24.652Z,7.68
2023-04-13T11:25:58.594Z,7.80
2023-04-13T11:28:36.001Z,10.43
2023-04-13T11:31:04.619Z,6.93
2023-04-13T11:33:34.209Z,7.25
2023-04-13T11:36:02.288Z,8.60
2023-04-13T11:38:29.745Z,9.95
2023-04-13T11:41:15.573Z,9.35
2023-04-13T11:43:46.402Z,6.65
2023-04-13T11:46:16.300Z,10.52
2023-04-13T11:48:44.024Z,10.25
2023-04-13T11:51:12.384Z,9.27
2023-04-13T11:53:40.924Z,8.98
2023-04-13T11:56:08.811Z,7.75
2023-04-13T11:58:37.562Z,9.63
2023-04-13T12:01:14.438Z,7.68
2023-04-13T12:04:01.458Z,7.57
2023-04-13T12:06:35.305Z,7.82
2023-04-13T12:09:10.841Z,5.75
2023-04-13T12:11:42.832Z,8.27
2023-04-13T12:14:49.873Z,10.15
2023-04-13T12:17:35.431Z,7.47
2023-04-13T12:20:01.493Z,5.90
2023-04-13T12:22:54.881Z,7.70
2023-04-13T12:25:25.098Z,7.07
2023-04-13T12:27:53.997Z,7.40
2023-04-13T12:30:22.325Z,6.05
2023-04-13T12:32:55.267Z,8.32
2023-04-13T12:35:22.574Z,6.85
2023-04-13T12:37:50.573Z,6.70
2023-04-13T12:40:18.623Z,6.65
2023-04-13T12:42:47.184Z,7.30
2023-04-13T12:45:17.022Z,10.82
2023-04-13T12:47:44.525Z,7.45
2023-04-13T12:50:12.427Z,5.93
2023-04-13T12:52:43.054Z,5.53
2023-04-13T12:55:10.727Z,5.95
2023-04-13T12:57:39.848Z,9.70
2023-04-13T13:00:11.113Z,6.03
2023-04-13T13:02:38.927Z,4.60
2023-04-13T13:05:07.958Z,4.78
2023-04-13T13:07:35.612Z,8.98
2023-04-13T13:10:05.011Z,6.13
2023-04-13T13:12:37.307Z,4.65
2023-04-13T13:15:10.446Z,5.18
2023-04-13T13:17:41.714Z,6.25
2023-04-13T13:20:10.503Z,5.85
2023-04-13T13:22:38.224Z,6.03
2023-04-13T13:25:07.182Z,5.55
2023-04-13T13:30:09.854Z,5.35
2023-04-13T13:32:37.460Z,6.20
2023-04-13T13:35:06.128Z,6.30
2023-04-13T13:37:33.440Z,5.22
2023-04-13T13:40:07.830Z,7.53
2023-04-13T13:42:50.049Z,5.63
2023-04-13T13:47:54.093Z,7.80
2023-04-13T13:50:21.955Z,3.92
2023-04-13T13:53:02.615Z,6.60
2023-04-13T13:55:31.240Z,5.90
2023-04-13T13:57:58.945Z,7.80
2023-04-13T14:00:27.384Z,9.05
2023-04-13T14:02:55.478Z,6.93
2023-04-13T14:05:22.756Z,6.22
2023-04-13T14:07:51.006Z,6.50
2023-04-13T14:10:18.042Z,7.05
2023-04-13T14:12:49.560Z,7.85
2023-04-13T14:15:25.214Z,6.75
2023-04-13T14:18:06.420Z,6.78
2023-04-13T14:20:40.626Z,5.35
2023-04-13T14:23:09.495Z,7.32
2023-04-13T14:25:37.918Z,7.90
2023-04-13T14:28:05.356Z,10.30
2023-04-13T14:30:32.459Z,7.95
2023-04-13T14:33:01.054Z,5.82
2023-04-13T14:35:28.406Z,6.45
2023-04-13T14:37:56.662Z,6.30
2023-04-13T14:40:24.393Z,6.40
2023-04-13T14:42:52.936Z,6.45
2023-04-13T14:45:21.212Z,6.40
2023-04-13T14:47:49.553Z,6.50
2023-04-13T14:50:17.216Z,5.55
2023-04-13T14:52:49.464Z,6.22
2023-04-13T14:55:17.788Z,6.97
2023-04-13T14:57:46.129Z,7.25
2023-04-13T15:00:22.226Z,5.25
2023-04-13T15:02:53.028Z,6.15
2023-04-13T15:05:21.051Z,7.65
2023-04-13T15:07:48.844Z,5.38
2023-04-13T15:10:16.542Z,5.35
2023-04-13T15:12:44.182Z,7.80
2023-04-13T15:15:11.552Z,7.10
2023-04-13T15:17:39.174Z,5.85
2023-04-13T15:20:07.867Z,9.35
2023-04-13T15:22:36.451Z,7.78
2023-04-13T15:25:04.291Z,6.38
2023-04-13T15:27:31.864Z,5.13
2023-04-13T15:30:00.309Z,6.55
2023-04-13T15:32:28.886Z,7.20
2023-04-13T15:34:57.459Z,6.15
2023-04-13T15:37:25.137Z,6.53
2023-04-13T15:39:52.295Z,5.47
2023-04-13T15:42:21.369Z,6.57
2023-04-13T15:44:48.680Z,3.78
2023-04-13T15:47:16.024Z,4.57
2023-04-13T15:49:43.162Z,3.65
2023-04-13T15:52:11.357Z,4.90
2023-04-13T15:54:38.661Z,5.30
2023-04-13T15:57:06.943Z,3.47
2023-04-13T15:59:34.876Z,4.60
2023-04-13T16:02:02.673Z,4.00
2023-04-13T16:04:30.191Z,6.80
2023-04-13T16:07:11.829Z,4.07
2023-04-13T16:09:39.518Z,3.60
2023-04-13T16:12:10.848Z,6.28
2023-04-13T16:14:45.380Z,6.10
2023-04-13T16:17:15.010Z,5.30
2023-04-13T16:19:46.683Z,6.22
2023-04-13T16:22:14.449Z,3.83
2023-04-13T16:24:42.040Z,4.80
2023-04-13T16:27:10.273Z,4.15
2023-04-13T16:29:37.513Z,4.57
2023-04-13T16:32:05.115Z,5.85
2023-04-13T16:34:32.598Z,5.43
2023-04-13T16:37:00.870Z,7.10
2023-04-13T16:39:28.017Z,6.63
2023-04-13T16:41:55.559Z,4.03
2023-04-13T16:44:22.703Z,5.25
2023-04-13T16:46:50.514Z,4.68
2023-04-13T16:49:17.525Z,6.57
2023-04-13T16:51:45.754Z,7.60
2023-04-13T16:54:14.047Z,6.50
2023-04-13T16:56:42.577Z,8.05
2023-04-13T16:59:09.779Z,4.70
2023-04-13T17:01:39.722Z,5.75
2023-04-13T17:04:07.217Z,8.43
2023-04-13T17:06:38.630Z,7.57
2023-04-13T17:09:06.375Z,7.55
2023-04-13T17:11:34.929Z,7.50
2023-04-13T17:14:02.252Z,10.73
2023-04-13T17:16:30.649Z,12.00
2023-04-13T17:18:58.701Z,8.25
2023-04-13T17:21:27.331Z,8.35
2023-04-13T17:23:54.750Z,7.32
2023-04-13T17:26:22.725Z,8.10
2023-04-13T17:28:49.906Z,8.65
2023-04-13T17:31:17.560Z,7.30
2023-04-13T17:33:45.237Z,8.23
2023-04-13T17:36:12.847Z,7.50
2023-04-13T17:38:40.088Z,8.60
2023-04-13T17:41:10.851Z,7.43
2023-04-13T17:43:41.154Z,8.20
2023-04-13T17:46:09.186Z,9.05
2023-04-13T17:48:36.468Z,7.82
2023-04-13T17:51:10.547Z,11.88
2023-04-13T17:53:38.296Z,17.95
2023-04-13T17:56:06.007Z,17.92
2023-04-13T17:58:35.142Z,18.42
2023-04-13T18:01:10.536Z,19.85
2023-04-13T18:03:37.962Z,18.75
2023-04-13T18:06:06.502Z,26.20
2023-04-13T18:08:33.575Z,21.90
2023-04-13T18:11:01.127Z,24.90
2023-04-13T18:13:29.189Z,17.20
2023-04-13T18:15:56.831Z,20.20
2023-04-13T18:18:24.511Z,15.80
2023-04-13T18:20:53.949Z,17.88
2023-04-13T18:23:21.618Z,13.93
2023-04-13T18:25:50.594Z,12.65
2023-04-13T18:28:18.338Z,12.27
2023-04-13T18:30:46.245Z,13.95
2023-04-13T18:33:13.455Z,15.00
2023-04-13T18:35:50.380Z,18.67
2023-04-13T18:38:17.731Z,17.83
2023-04-13T18:40:45.854Z,19.95
2023-04-13T18:43:13.112Z,12.95
2023-04-13T18:45:40.637Z,19.98
2023-04-13T18:48:09.751Z,62.72
2023-04-13T18:50:38.642Z,30.92
2023-04-13T18:53:06.142Z,25.48
2023-04-13T18:55:33.201Z,43.38
2023-04-13T18:58:00.884Z,43.53
2023-04-13T19:00:28.071Z,35.53
2023-04-13T19:02:57.567Z,56.85
2023-04-13T19:05:26.064Z,38.10
2023-04-13T19:07:59.018Z,27.80
2023-04-13T19:10:27.985Z,24.27
2023-04-13T19:12:56.709Z,19.08
2023-04-13T19:15:25.104Z,25.15
2023-04-13T19:17:52.916Z,21.63
2023-04-13T19:20:24.725Z,22.42
2023-04-13T19:22:52.253Z,24.77
2023-04-13T19:25:19.461Z,26.60
2023-04-13T19:27:47.245Z,25.23
2023-04-13T19:30:16.409Z,28.52
2023-04-13T19:32:46.035Z,25.38
2023-04-13T19:35:14.202Z,25.10
2023-04-13T19:37:42.231Z,26.33
2023-04-13T19:40:13.584Z,26.52
2023-04-13T19:42:43.485Z,21.00
2023-04-13T19:45:11.772Z,21.63
2023-04-13T19:47:40.662Z,23.58
2023-04-13T19:50:11.002Z,21.13
2023-04-13T19:52:39.918Z,19.55
2023-04-13T19:55:08.578Z,21.00
2023-04-13T19:57:40.287Z,21.98
2023-04-13T20:00:17.397Z,18.77
2023-04-13T20:02:47.371Z,18.15
2023-04-13T20:05:15.501Z,17.77
2023-04-13T20:07:43.220Z,16.13
2023-04-13T20:10:12.244Z,23.65
2023-04-13T20:12:39.905Z,24.48
2023-04-13T20:15:08.644Z,22.35
2023-04-13T20:17:36.221Z,22.63
2023-04-13T20:20:03.609Z,23.90
2023-04-13T20:22:30.898Z,25.05
2023-04-13T20:24:58.195Z,26.33
2023-04-13T20:27:25.781Z,28.63
2023-04-13T20:29:53.048Z,34.30
2023-04-13T20:32:20.759Z,25.55
2023-04-13T20:34:48.944Z,22.73
2023-04-13T20:37:18.486Z,21.52
2023-04-13T20:39:52.955Z,19.40
2023-04-13T20:42:22.434Z,22.90
2023-04-13T20:44:58.959Z,24.90
2023-04-13T20:47:31.486Z,28.25
2023-04-13T20:50:00.021Z,28.55
2023-04-13T20:52:29.962Z,24.75
2023-04-13T20:54:57.101Z,26.00
2023-04-13T20:57:26.823Z,24.83
2023-04-13T20:59:54.352Z,22.73
2023-04-13T21:02:21.905Z,19.58
2023-04-13T21:04:49.434Z,20.33
2023-04-13T21:07:16.881Z,25.90
2023-04-13T21:09:44.173Z,24.33
2023-04-13T21:12:11.516Z,24.63
2023-04-13T21:14:38.606Z,27.95
2023-04-13T21:17:06.099Z,27.33
2023-04-13T21:19:33.491Z,30.25
2023-04-13T21:22:02.043Z,27.95
2023-04-13T21:24:29.075Z,31.77
2023-04-13T21:26:56.959Z,29.63
2023-04-13T21:29:24.092Z,32.22
2023-04-13T21:31:51.829Z,33.17
2023-04-13T21:34:18.991Z,32.63
2023-04-13T21:39:16.963Z,33.88
2023-04-13T21:41:44.363Z,29.25
2023-04-13T21:44:28.365Z,28.05
2023-04-13T21:46:56.871Z,27.30
2023-04-13T21:49:24.048Z,30.52
2023-04-13T21:51:51.552Z,27.75
2023-04-13T21:54:18.708Z,31.40
2023-04-13T21:56:46.806Z,28.83
2023-04-13T21:59:13.823Z,26.67
2023-04-13T22:01:41.261Z,30.15
2023-04-13T22:04:09.480Z,28.75
2023-04-13T22:06:36.800Z,27.55
2023-04-13T22:09:04.043Z,27.15
2023-04-13T22:11:31.557Z,27.63
2023-04-13T22:14:00.188Z,32.00
2023-04-13T22:16:28.457Z,27.55
2023-04-13T22:18:55.755Z,25.13
2023-04-13T22:21:23.016Z,29.08
2023-04-13T22:23:50.018Z,26.80
2023-04-13T22:26:17.261Z,29.50
2023-04-13T22:28:44.227Z,29.40
2023-04-13T22:31:14.770Z,26.05
2023-04-13T22:33:41.840Z,27.83
2023-04-13T22:36:20.022Z,23.55
2023-04-13T22:38:47.786Z,26.67
2023-04-13T22:41:15.734Z,28.02
2023-04-13T22:43:42.717Z,24.77
2023-04-13T22:46:10.114Z,26.23
2023-04-13T22:48:37.242Z,26.65
2023-04-13T22:51:04.730Z,24.65
2023-04-13T22:53:32.138Z,24.08
2023-04-13T22:56:00.847Z,29.92
2023-04-13T22:58:28.450Z,27.30
2023-04-13T23:00:56.338Z,24.75
2023-04-13T23:03:23.663Z,29.88
2023-04-13T23:05:51.434Z,26.00
2023-04-13T23:08:18.387Z,26.20
2023-04-13T23:10:45.647Z,25.60
2023-04-13T23:13:12.636Z,28.45
2023-04-13T23:15:39.916Z,24.33
2023-04-13T23:18:07.065Z,24.13
2023-04-13T23:20:34.312Z,29.30
2023-04-13T23:23:01.296Z,26.00
2023-04-13T23:25:28.609Z,28.23
2023-04-13T23:27:55.671Z,28.38
2023-04-13T23:30:23.626Z,32.00
2023-04-13T23:32:51.189Z,30.27
2023-04-13T23:35:18.540Z,29.98
2023-04-13T23:37:46.233Z,29.60
2023-04-13T23:40:13.961Z,35.65
2023-04-13T23:42:41.136Z,37.75
2023-04-13T23:45:08.885Z,30.92
2023-04-13T23:47:36.023Z,26.02
2023-04-13T23:50:03.524Z,28.17
2023-04-13T23:52:30.554Z,27.33
2023-04-13T23:54:57.821Z,25.27
2023-04-13T23:57:24.862Z,27.13
2023-04-13T23:59:56.787Z,26.50
